Time;durP1;ratioP1;P1;durP2;ratioP2;P2;SDS_P1;SDS_P2;PMS_P1;PMS_P2;Temp;Humidity;BMP_temperature;BMP_pressure;BME280_temperature;BME280_humidity;BME280_pressure;Samples;Min_cycle;Max_cycle;Signal;HPM_P1;HPM_P2
2024/03/05 00:03:17;;;;;;;97.70;53.10;;;;;;;8.12;100.00;98236.84;272693;1271;23094;-87
2024/03/05 00:09:21;;;;;;;92.70;51.40;;;;;;;8.07;100.00;98240.76;273020;1270;22516;-88
2024/03/05 00:15:23;;;;;;;93.90;52.60;;;;;;;8.00;100.00;98261.56;273034;1270;23346;-88
2024/03/05 00:21:26;;;;;;;101.10;56.20;;;;;;;8.00;100.00;98263.43;272993;1270;22299;-89
2024/03/05 00:27:28;;;;;;;92.50;51.70;;;;;;;7.99;100.00;98261.33;272795;1272;22429;-88
2024/03/05 00:33:31;;;;;;;111.90;60.60;;;;;;;7.98;100.00;98261.32;272761;1270;23111;-87
2024/03/05 00:39:34;;;;;;;99.70;55.80;;;;;;;7.98;100.00;98256.02;272645;1271;22209;-88
2024/03/05 00:45:36;;;;;;;94.40;53.20;;;;;;;7.99;100.00;98254.48;272812;1272;22990;-88
2024/03/05 00:51:39;;;;;;;104.80;57.20;;;;;;;7.99;100.00;98245.37;272810;1269;22201;-89
2024/03/05 00:57:41;;;;;;;93.50;54.20;;;;;;;7.95;100.00;98242.75;272735;1270;22742;-88
2024/03/05 01:03:43;;;;;;;90.30;48.90;;;;;;;7.92;100.00;98255.80;272868;1254;22218;-88
2024/03/05 01:09:48;;;;;;;84.10;47.40;;;;;;;7.92;100.00;98260.95;272824;1270;22231;-89
2024/03/05 01:15:50;;;;;;;87.90;47.40;;;;;;;7.94;100.00;98265.33;272553;1270;22251;-88
2024/03/05 01:21:52;;;;;;;90.10;52.30;;;;;;;7.95;100.00;98269.86;272924;1270;22370;-88
2024/03/05 01:27:54;;;;;;;114.80;57.90;;;;;;;7.92;100.00;98272.70;272920;1269;22879;-88
2024/03/05 01:33:56;;;;;;;92.10;54.30;;;;;;;7.90;100.00;98273.39;272735;1269;22297;-88
2024/03/05 01:39:58;;;;;;;84.20;50.30;;;;;;;7.86;100.00;98275.84;272600;1270;22399;-88
2024/03/05 01:46:00;;;;;;;95.50;53.80;;;;;;;7.87;100.00;98278.56;272399;1270;22335;-88
2024/03/05 01:52:03;;;;;;;89.30;49.10;;;;;;;7.84;100.00;98284.70;272397;1267;22224;-87
2024/03/05 01:58:17;;;;;;;81.40;47.90;;;;;;;7.85;100.00;98287.20;272455;1271;22166;-89
2024/03/05 02:04:21;;;;;;;79.00;48.70;;;;;;;7.86;100.00;98283.55;272312;1273;22249;-87
2024/03/05 02:10:23;;;;;;;80.50;47.70;;;;;;;7.86;100.00;98282.84;272353;1273;22809;-88
2024/03/05 02:16:26;;;;;;;85.90;49.60;;;;;;;7.87;100.00;98279.43;272392;1271;22454;-88
2024/03/05 02:22:29;;;;;;;84.20;49.00;;;;;;;7.86;100.00;98279.52;272345;1271;22449;-88
2024/03/05 02:28:32;;;;;;;87.80;49.10;;;;;;;7.84;100.00;98275.27;272317;1270;22189;-88
2024/03/05 02:37:39;;;;;;;86.50;49.20;;;;;;;7.84;100.00;98276.75;264655;1305;544922;-89
2024/03/05 02:43:41;;;;;;;89.60;50.10;;;;;;;7.83;100.00;98276.73;271089;1279;22234;-89
2024/03/05 02:49:43;;;;;;;88.20;50.00;;;;;;;7.82;100.00;98277.02;271178;1276;359592;-88
2024/03/05 02:55:45;;;;;;;95.30;50.90;;;;;;;7.80;100.00;98281.14;271618;1268;23137;-90
2024/03/05 03:01:47;;;;;;;92.60;51.20;;;;;;;7.78;100.00;98287.20;271615;1271;23681;-90
2024/03/05 03:07:51;;;;;;;81.70;46.60;;;;;;;7.77;100.00;98293.55;271633;1276;22441;-89
2024/03/05 03:13:52;;;;;;;89.60;49.30;;;;;;;7.77;100.00;98298.32;271666;1264;22517;-89
2024/03/05 03:19:54;;;;;;;105.80;52.20;;;;;;;7.78;100.00;98301.60;271300;1276;23539;-88
2024/03/05 03:25:58;;;;;;;102.00;51.60;;;;;;;7.78;100.00;98306.03;271402;1276;22411;-90
2024/03/05 03:32:01;;;;;;;97.20;49.60;;;;;;;7.77;100.00;98316.15;268883;1276;24158;-88
2024/03/05 03:38:03;;;;;;;107.30;53.70;;;;;;;7.76;100.00;98317.45;268545;1276;22377;-89
2024/03/05 03:44:09;;;;;;;102.50;50.90;;;;;;;7.74;100.00;98321.40;269526;1274;25425;-88
2024/03/05 03:50:11;;;;;;;107.70;51.20;;;;;;;7.72;100.00;98326.98;268247;1276;25428;-88
2024/03/05 03:56:13;;;;;;;110.40;51.70;;;;;;;7.65;100.00;98336.86;268365;1276;22530;-88
2024/03/05 04:02:14;;;;;;;111.20;50.10;;;;;;;7.56;100.00;98339.16;270593;1273;22474;-89
2024/03/05 04:08:17;;;;;;;96.40;48.30;;;;;;;7.56;100.00;98341.50;270359;1266;22502;-89
2024/03/05 04:14:19;;;;;;;102.60;45.20;;;;;;;7.58;100.00;98344.10;269276;1273;22505;-89
2024/03/05 04:20:21;;;;;;;80.70;40.30;;;;;;;7.56;100.00;98344.68;271827;1273;23872;-89
2024/03/05 04:26:23;;;;;;;76.90;37.40;;;;;;;7.51;100.00;98348.20;271241;1274;22317;-89
2024/03/05 04:32:26;;;;;;;70.60;35.20;;;;;;;7.45;100.00;98351.63;271101;1273;23632;-89
2024/03/05 04:38:28;;;;;;;65.70;33.30;;;;;;;7.37;100.00;98356.96;272068;1273;22437;-88
2024/03/05 04:44:31;;;;;;;62.60;30.30;;;;;;;7.31;100.00;98369.64;269593;1273;22557;-89
2024/03/05 04:50:33;;;;;;;58.30;27.60;;;;;;;7.16;100.00;98374.57;269562;1273;22649;-89
2024/03/05 04:56:48;;;;;;;61.00;25.60;;;;;;;6.98;100.00;98379.97;269313;1274;22562;-89
2024/03/05 05:02:54;;;;;;;60.60;26.30;;;;;;;6.85;100.00;98386.38;269580;1274;22649;-89
2024/03/05 05:08:56;;;;;;;60.80;24.90;;;;;;;6.76;100.00;98394.06;270943;1273;22403;-89
2024/03/05 05:15:00;;;;;;;53.70;23.50;;;;;;;6.66;100.00;98392.88;270369;1273;22542;-87
2024/03/05 05:21:02;;;;;;;57.10;24.40;;;;;;;6.59;100.00;98394.57;269400;1275;23603;-89
2024/03/05 05:27:04;;;;;;;51.80;22.70;;;;;;;6.54;100.00;98400.78;269840;1259;22552;-89
2024/03/05 05:33:13;;;;;;;51.10;20.40;;;;;;;6.50;100.00;98414.67;268543;1273;24278;-87
2024/03/05 05:39:17;;;;;;;50.80;21.40;;;;;;;6.48;100.00;98430.41;268891;1275;22634;-89
2024/03/05 05:45:21;;;;;;;50.50;19.20;;;;;;;6.51;100.00;98433.03;269613;1273;22216;-88
2024/03/05 05:51:30;;;;;;;45.50;21.00;;;;;;;6.56;100.00;98442.20;271713;1269;23721;-88
2024/03/05 05:57:32;;;;;;;47.00;19.20;;;;;;;6.59;100.00;98444.44;270302;1273;22484;-89
2024/03/05 06:03:37;;;;;;;40.80;18.90;;;;;;;6.58;100.00;98447.30;270318;1275;22951;-89
2024/03/05 06:09:40;;;;;;;37.40;17.00;;;;;;;6.60;100.00;98456.50;271160;1273;22418;-88
2024/03/05 06:15:43;;;;;;;35.00;17.10;;;;;;;6.58;100.00;98462.67;271851;1269;22601;-88
2024/03/05 06:21:45;;;;;;;36.90;17.50;;;;;;;6.60;100.00;98470.80;272451;1271;22410;-87
2024/03/05 06:27:47;;;;;;;27.40;15.50;;;;;;;6.66;100.00;98481.33;270796;1270;22651;-88
2024/03/05 06:33:49;;;;;;;30.80;15.20;;;;;;;6.72;100.00;98489.44;270460;1272;22408;-88
2024/03/05 06:39:52;;;;;;;28.20;15.40;;;;;;;6.74;100.00;98498.80;271091;1272;25293;-87
2024/03/05 06:45:56;;;;;;;21.90;13.00;;;;;;;6.77;100.00;98506.02;269278;1271;22547;-88
2024/03/05 06:56:39;;;;;;;23.90;12.10;;;;;;;6.79;100.00;98510.61;272203;1272;22216;-88
2024/03/05 06:58:23;;;;;;;24.90;14.00;;;;;;;6.78;100.00;98515.27;271559;1272;22385;-88
2024/03/05 07:04:24;;;;;;;25.00;12.90;;;;;;;6.79;100.00;98522.36;272048;1272;22427;-88
2024/03/05 07:10:31;;;;;;;27.90;14.60;;;;;;;6.78;100.00;98534.08;272476;1257;22211;-87
2024/03/05 07:16:33;;;;;;;25.90;13.50;;;;;;;6.76;100.00;98546.17;270415;1272;22382;-89
2024/03/05 07:22:35;;;;;;;26.90;15.00;;;;;;;6.72;100.00;98551.86;269251;1271;25461;-87
2024/03/05 07:28:40;;;;;;;21.90;12.30;;;;;;;6.71;100.00;98558.52;272147;1272;22205;-88
2024/03/05 07:34:42;;;;;;;18.90;12.30;;;;;;;6.64;100.00;98557.68;270562;1271;22192;-88
2024/03/05 07:40:45;;;;;;;17.30;11.80;;;;;;;6.57;100.00;98554.58;272289;1272;22241;-88
2024/03/05 07:46:47;;;;;;;16.30;11.40;;;;;;;6.52;100.00;98561.16;272495;1272;22324;-89
2024/03/05 07:52:53;;;;;;;19.30;11.50;;;;;;;6.55;100.00;98566.67;272517;1272;23450;-87
2024/03/05 07:58:58;;;;;;;17.70;10.20;;;;;;;6.63;100.00;98575.13;272567;1272;22858;-86
2024/03/05 08:05:00;;;;;;;17.60;10.80;;;;;;;6.68;100.00;98584.78;272378;1272;22428;-87
2024/03/05 08:11:02;;;;;;;16.90;10.80;;;;;;;6.70;100.00;98588.19;272595;1272;22176;-87
2024/03/05 08:17:08;;;;;;;15.20;9.90;;;;;;;6.73;100.00;98591.96;272630;1270;22608;-88
2024/03/05 08:23:11;;;;;;;14.10;9.10;;;;;;;6.71;100.00;98597.30;272449;1264;22822;-88
2024/03/05 08:29:14;;;;;;;14.30;8.90;;;;;;;6.72;100.00;98601.65;272831;1266;23655;-89
2024/03/05 08:35:16;;;;;;;14.60;9.10;;;;;;;6.79;100.00;98606.45;272609;1266;22609;-87
2024/03/05 08:41:18;;;;;;;15.60;9.10;;;;;;;6.88;100.00;98612.46;270841;1266;22513;-88
2024/03/05 08:47:22;;;;;;;15.70;9.50;;;;;;;6.98;100.00;98618.95;271341;1266;23601;-88
2024/03/05 08:53:29;;;;;;;15.80;10.20;;;;;;;7.00;100.00;98630.05;271519;1266;22419;-88
2024/03/05 08:59:31;;;;;;;15.90;10.80;;;;;;;6.99;100.00;98638.05;272615;1266;22556;-89
2024/03/05 09:05:35;;;;;;;18.90;12.00;;;;;;;6.97;100.00;98644.68;272163;1266;23307;-89
2024/03/05 09:11:37;;;;;;;21.80;11.50;;;;;;;6.98;100.00;98649.45;273102;1266;22983;-90
2024/03/05 09:17:41;;;;;;;18.30;11.20;;;;;;;6.97;100.00;98657.05;272759;1266;24245;-88
2024/03/05 09:23:43;;;;;;;20.50;12.00;;;;;;;6.98;100.00;98662.05;270403;1266;22543;-88
2024/03/05 09:29:46;;;;;;;20.60;13.30;;;;;;;7.04;100.00;98671.80;272251;1266;22444;-88
2024/03/05 09:35:53;;;;;;;25.30;15.60;;;;;;;7.06;100.00;98675.19;272437;1266;22422;-89
2024/03/05 09:41:55;;;;;;;33.80;18.80;;;;;;;7.06;100.00;98682.34;272511;1266;22205;-89
2024/03/05 09:48:04;;;;;;;36.60;21.00;;;;;;;7.02;100.00;98689.49;272869;1266;23476;-89
2024/03/05 09:54:17;;;;;;;37.30;21.20;;;;;;;7.00;100.00;98690.32;272833;1267;23020;-89
2024/03/05 10:00:34;;;;;;;;;;;;;;;;;;;;;
2024/03/05 10:06:36;;;;;;;39.00;22.10;;;;;;;7.10;100.00;98707.85;272992;1267;22255;-88
2024/03/05 10:12:39;;;;;;;39.40;22.50;;;;;;;7.16;100.00;98717.23;273376;1266;22362;-89
2024/03/05 10:18:49;;;;;;;43.30;26.40;;;;;;;7.19;100.00;98717.91;273665;1276;22153;-88
2024/03/05 10:24:53;;;;;;;59.50;31.10;;;;;;;7.15;100.00;98717.52;272734;1267;22571;-87
2024/03/05 10:31:04;;;;;;;64.30;35.60;;;;;;;7.06;100.00;98716.94;272624;1266;22508;-87
2024/03/05 10:37:10;;;;;;;70.40;35.20;;;;;;;7.05;100.00;98712.35;270385;1267;22469;-88
2024/03/05 10:43:16;;;;;;;62.40;33.60;;;;;;;7.10;100.00;98712.67;274079;1270;22234;-88
2024/03/05 10:49:22;;;;;;;71.10;36.80;;;;;;;7.14;100.00;98716.80;273087;1266;22411;-87
2024/03/05 10:55:36;;;;;;;69.40;36.00;;;;;;;7.18;100.00;98723.63;272932;1266;22425;-87
2024/03/05 11:02:00;;;;;;;61.30;33.10;;;;;;;7.22;100.00;98722.33;273885;1259;22817;-88
2024/03/05 11:08:13;;;;;;;64.30;32.80;;;;;;;7.25;100.00;98723.31;273066;1266;22353;-87
2024/03/05 11:14:15;;;;;;;61.00;30.50;;;;;;;7.23;100.00;98733.09;272871;1266;23176;-88
2024/03/05 11:20:37;;;;;;;51.80;28.10;;;;;;;7.25;100.00;98727.59;273460;1266;23483;-87
2024/03/05 11:26:50;;;;;;;47.60;28.00;;;;;;;7.23;100.00;98726.56;272561;1266;22542;-88
2024/03/05 11:33:11;;;;;;;52.30;28.20;;;;;;;7.19;100.00;98728.27;273066;1266;23111;-89
2024/03/05 11:39:26;;;;;;;50.30;25.50;;;;;;;7.17;100.00;98729.84;273155;1266;22522;-88
2024/03/05 11:45:47;;;;;;;50.60;25.30;;;;;;;7.21;100.00;98734.42;272202;1266;23501;-88
2024/03/05 11:52:00;;;;;;;47.90;26.40;;;;;;;7.21;100.00;98735.45;272053;1266;22445;-88
2024/03/05 11:58:07;;;;;;;53.60;27.40;;;;;;;7.24;100.00;98734.27;272944;1266;22403;-89
2024/03/05 12:04:18;;;;;;;57.00;29.70;;;;;;;7.32;100.00;98733.40;271664;1266;24076;-89
2024/03/05 12:10:46;;;;;;;49.90;28.40;;;;;;;7.46;100.00;98734.00;271975;1266;22201;-88
2024/03/05 12:16:49;;;;;;;48.50;26.70;;;;;;;7.56;100.00;98734.73;271802;1266;22519;-88
2024/03/05 12:22:52;;;;;;;50.80;27.60;;;;;;;7.63;100.00;98739.39;271017;1266;22556;-88
2024/03/05 12:28:54;;;;;;;44.50;25.20;;;;;;;7.74;100.00;98745.89;270681;1266;22511;-88
2024/03/05 12:34:58;;;;;;;51.90;27.40;;;;;;;7.84;100.00;98747.46;270622;1266;22518;-88
2024/03/05 12:41:01;;;;;;;54.20;29.70;;;;;;;8.01;100.00;98751.44;272330;1266;22369;-88
2024/03/05 12:47:18;;;;;;;49.20;26.80;;;;;;;8.10;100.00;98750.48;273299;1266;22296;-89
2024/03/05 12:53:20;;;;;;;58.70;31.20;;;;;;;8.13;100.00;98751.10;272635;1266;22116;-89
2024/03/05 12:59:23;;;;;;;51.60;29.90;;;;;;;8.18;100.00;98743.15;272674;1266;23760;-88
2024/03/05 13:05:52;;;;;;;48.50;29.00;;;;;;;8.35;100.00;98739.33;272663;1266;23772;-88
2024/03/05 13:12:05;;;;;;;51.50;30.60;;;;;;;8.53;100.00;98743.95;273108;1266;22434;-89
2024/03/05 13:18:08;;;;;;;55.80;32.10;;;;;;;8.62;100.00;98746.45;273480;1265;22209;-87
2024/03/05 13:24:12;;;;;;;56.20;31.10;;;;;;;8.60;100.00;98747.52;272983;1266;22316;-89
2024/03/05 13:30:19;;;;;;;54.40;31.70;;;;;;;8.56;100.00;98756.42;273189;1266;22493;-88
2024/03/05 13:36:23;;;;;;;52.30;29.90;;;;;;;8.50;100.00;98762.47;273090;1266;22380;-88
2024/03/05 13:42:26;;;;;;;52.10;27.10;;;;;;;8.41;100.00;98767.16;272408;1266;22341;-87
2024/03/05 13:48:28;;;;;;;38.60;23.40;;;;;;;8.30;100.00;98777.73;272965;1263;22413;-89
2024/03/05 13:54:30;;;;;;;42.10;23.10;;;;;;;8.15;100.00;98784.00;272781;1265;22514;-89
2024/03/05 14:00:37;;;;;;;39.90;22.30;;;;;;;7.99;100.00;98787.21;273003;1266;22161;-88
2024/03/05 14:06:40;;;;;;;42.70;23.40;;;;;;;7.87;100.00;98797.98;272573;1265;22548;-88
2024/03/05 14:12:42;;;;;;;46.00;25.00;;;;;;;7.76;100.00;98808.99;271468;1264;22352;-88
2024/03/05 14:18:45;;;;;;;48.70;25.00;;;;;;;7.67;100.00;98815.52;271106;1265;22629;-88
2024/03/05 14:24:47;;;;;;;48.00;24.70;;;;;;;7.60;100.00;98821.83;272974;1265;22319;-88
2024/03/05 14:30:51;;;;;;;44.20;24.20;;;;;;;7.52;100.00;98827.11;273376;1265;22186;-88
2024/03/05 14:36:56;;;;;;;42.90;23.80;;;;;;;7.50;100.00;98831.20;273535;1266;22817;-90
2024/03/05 14:43:01;;;;;;;39.50;22.90;;;;;;;7.53;100.00;98834.30;273426;1266;22525;-90
2024/03/05 14:49:04;;;;;;;43.70;26.90;;;;;;;7.56;100.00;98838.55;273152;1266;328612;-90
2024/03/05 14:55:09;;;;;;;47.30;25.50;;;;;;;7.56;100.00;98843.08;273173;1266;22597;-89
2024/03/05 15:01:13;;;;;;;42.80;25.80;;;;;;;7.55;100.00;98848.13;273380;1265;23158;-91
2024/03/05 15:07:16;;;;;;;100.80;38.40;;;;;;;7.51;100.00;98860.08;273119;1266;22320;-88
2024/03/05 15:13:17;;;;;;;64.20;31.60;;;;;;;7.47;100.00;98867.88;273684;1266;22245;-88
2024/03/05 15:19:19;;;;;;;45.00;25.40;;;;;;;7.49;100.00;98874.05;272565;1257;22361;-89
2024/03/05 15:25:22;;;;;;;53.60;26.50;;;;;;;7.52;100.00;98882.75;273252;1266;22283;-88
2024/03/05 15:31:25;;;;;;;45.90;24.00;;;;;;;7.57;100.00;98891.66;273126;1266;24016;-90
2024/03/05 15:37:28;;;;;;;45.70;25.60;;;;;;;7.56;100.00;98901.04;273010;1266;22596;-88
2024/03/05 15:43:32;;;;;;;44.70;25.00;;;;;;;7.56;100.00;98907.98;271220;1266;22566;-88
2024/03/05 15:49:34;;;;;;;40.60;25.90;;;;;;;7.57;100.00;98914.32;271593;1266;23076;-89
2024/03/05 15:55:42;;;;;;;50.80;29.90;;;;;;;7.56;100.00;98922.93;271140;1266;22857;-88
2024/03/05 16:01:44;;;;;;;45.30;26.20;;;;;;;7.52;100.00;98933.02;272673;1266;23397;-88
2024/03/05 16:07:46;;;;;;;57.50;29.50;;;;;;;7.50;100.00;98938.27;272422;1266;22580;-89
2024/03/05 16:13:52;;;;;;;52.30;29.00;;;;;;;7.48;100.00;98943.46;272546;1266;24181;-88
2024/03/05 16:19:54;;;;;;;53.10;30.10;;;;;;;7.45;100.00;98951.63;271500;1266;22596;-88
2024/03/05 16:25:56;;;;;;;52.40;28.00;;;;;;;7.38;100.00;98956.91;270455;1266;22527;-89
2024/03/05 16:31:59;;;;;;;57.70;30.70;;;;;;;7.34;100.00;98961.12;270604;1256;22174;-87
2024/03/05 16:38:05;;;;;;;62.40;34.80;;;;;;;7.30;100.00;98967.94;273449;1266;22366;-88
2024/03/05 16:44:10;;;;;;;57.70;29.90;;;;;;;7.22;100.00;98970.39;273380;1256;22188;-89
2024/03/05 16:50:16;;;;;;;50.50;29.30;;;;;;;7.09;100.00;98969.52;273889;1266;22162;-87
2024/03/05 16:56:21;;;;;;;60.70;33.40;;;;;;;6.94;100.00;98972.65;273624;1266;22310;-89
2024/03/05 17:02:24;;;;;;;64.20;32.00;;;;;;;6.86;100.00;98988.52;273601;1266;22419;-88
2024/03/05 17:08:29;;;;;;;64.20;33.80;;;;;;;6.84;100.00;98995.27;273468;1261;22446;-88
2024/03/05 17:14:33;;;;;;;66.30;35.50;;;;;;;6.83;100.00;99005.58;265890;1266;10002058;-88
2024/03/05 17:20:35;;;;;;;60.50;31.60;;;;;;;6.76;100.00;99011.14;273375;1266;23017;-90
2024/03/05 17:26:38;;;;;;;60.00;31.70;;;;;;;6.76;100.00;99022.17;273482;1266;22159;-88
2024/03/05 17:32:44;;;;;;;62.90;31.60;;;;;;;6.76;100.00;99023.80;273450;1264;22300;-89
2024/03/05 17:38:49;;;;;;;60.80;31.90;;;;;;;6.76;100.00;99024.03;273236;1262;22547;-89
2024/03/05 17:44:51;;;;;;;55.10;30.60;;;;;;;6.72;100.00;99022.70;273372;1265;22485;-89
2024/03/05 17:50:54;;;;;;;62.20;33.10;;;;;;;6.68;100.00;99024.21;273229;1265;22346;-87
2024/03/05 17:56:58;;;;;;;61.70;33.90;;;;;;;6.61;100.00;99023.88;272091;1266;23079;-87
2024/03/05 18:03:01;;;;;;;67.90;34.80;;;;;;;6.55;100.00;99030.92;273107;1265;22193;-87
2024/03/05 18:09:03;;;;;;;73.00;38.30;;;;;;;6.48;100.00;99041.08;273167;1266;22493;-87
2024/03/05 18:15:10;;;;;;;70.20;35.70;;;;;;;6.39;100.00;99048.53;273343;1265;22401;-87
2024/03/05 18:21:13;;;;;;;69.90;37.40;;;;;;;6.34;100.00;99050.02;274046;1262;22986;-86
2024/03/05 18:27:21;;;;;;;74.30;38.10;;;;;;;6.31;100.00;99059.48;273314;1265;22221;-89
2024/03/05 18:33:26;;;;;;;77.50;39.80;;;;;;;6.30;100.00;99063.05;273216;1265;22503;-87
2024/03/05 18:39:30;;;;;;;70.00;38.00;;;;;;;6.31;100.00;99062.91;271659;1265;22943;-88
2024/03/05 18:45:33;;;;;;;66.40;35.80;;;;;;;6.29;100.00;99066.80;271953;1265;23383;-87
2024/03/05 18:51:35;;;;;;;69.50;36.30;;;;;;;6.28;100.00;99073.66;271741;1265;22391;-88
2024/03/05 18:57:37;;;;;;;63.40;34.50;;;;;;;6.25;100.00;99078.56;273342;1265;22386;-88
2024/03/05 19:03:39;;;;;;;67.80;36.40;;;;;;;6.22;100.00;99085.23;273437;1265;23675;-88
2024/03/05 19:09:41;;;;;;;67.90;35.80;;;;;;;6.20;100.00;99093.02;273368;1265;22546;-88
2024/03/05 19:15:44;;;;;;;73.40;38.60;;;;;;;6.18;100.00;99094.59;273328;1253;23429;-87
2024/03/05 19:21:47;;;;;;;74.10;38.80;;;;;;;6.16;100.00;99106.66;273235;1265;23253;-89
2024/03/05 19:27:49;;;;;;;65.20;36.60;;;;;;;6.15;100.00;99099.08;273299;1265;22145;-88
2024/03/05 19:33:51;;;;;;;65.30;33.50;;;;;;;6.13;100.00;99093.95;273459;1265;23136;-88
2024/03/05 19:39:52;;;;;;;66.70;33.50;;;;;;;6.08;100.00;99093.52;273406;1265;22413;-89
2024/03/05 19:45:55;;;;;;;54.20;32.30;;;;;;;6.05;100.00;99091.95;273300;1266;22186;-88
2024/03/05 19:51:58;;;;;;;65.00;34.30;;;;;;;6.04;100.00;99094.55;273219;1265;24112;-89
2024/03/05 19:58:00;;;;;;;65.20;34.70;;;;;;;6.03;100.00;99095.45;272052;1265;22431;-88
2024/03/05 20:04:03;;;;;;;80.20;40.80;;;;;;;6.01;100.00;99099.41;273510;1265;22210;-89
2024/03/05 20:10:05;;;;;;;81.10;41.30;;;;;;;5.97;100.00;99096.81;273324;1265;22369;-89
2024/03/05 20:16:09;;;;;;;89.10;45.30;;;;;;;5.96;100.00;99096.23;273349;1265;22684;-90
2024/03/05 20:22:11;;;;;;;77.30;39.80;;;;;;;5.94;100.00;99091.75;273223;1264;22729;-88
2024/03/05 20:28:15;;;;;;;83.20;41.30;;;;;;;5.85;100.00;99076.95;271587;1265;22513;-89
2024/03/05 20:34:19;;;;;;;80.80;41.30;;;;;;;5.68;100.00;99083.62;273304;1265;23252;-88
2024/03/05 20:40:27;;;;;;;81.60;41.20;;;;;;;5.53;100.00;99090.73;273541;1265;22314;-90
2024/03/05 20:46:30;;;;;;;81.60;41.80;;;;;;;5.40;100.00;99092.01;273390;1265;22515;-88
2024/03/05 20:52:34;;;;;;;78.90;40.50;;;;;;;5.26;100.00;99094.89;273395;1265;23322;-88
2024/03/05 20:58:37;;;;;;;81.40;41.50;;;;;;;5.11;100.00;99097.87;273384;1265;22474;-88
2024/03/05 21:04:42;;;;;;;82.50;40.50;;;;;;;4.93;100.00;99101.73;273180;1265;22455;-88
2024/03/05 21:10:45;;;;;;;84.80;42.50;;;;;;;4.73;100.00;99111.12;273343;1265;22291;-89
2024/03/05 21:16:47;;;;;;;84.80;43.10;;;;;;;4.55;100.00;99116.34;273372;1265;23114;-89
2024/03/05 21:22:49;;;;;;;89.00;40.30;;;;;;;4.46;100.00;99123.36;265791;1265;10002177;-89
2024/03/05 21:28:51;;;;;;;99.50;47.60;;;;;;;4.35;100.00;99127.98;273154;1265;22188;-89
2024/03/05 21:34:53;;;;;;;104.70;44.70;;;;;;;4.22;100.00;99128.90;273291;1265;22284;-89
2024/03/05 21:40:56;;;;;;;89.00;41.00;;;;;;;4.02;100.00;99131.23;273454;1265;22380;-89
2024/03/05 21:46:58;;;;;;;82.90;39.80;;;;;;;3.83;100.00;99136.98;273288;1265;22433;-88
2024/03/05 21:53:00;;;;;;;73.30;35.70;;;;;;;3.68;100.00;99144.48;273518;1265;22383;-89
2024/03/05 21:59:03;;;;;;;87.60;41.80;;;;;;;3.57;100.00;99151.01;273230;1265;22346;-88
2024/03/05 22:05:06;;;;;;;99.80;44.10;;;;;;;3.55;100.00;99155.22;273500;1265;22247;-89
2024/03/05 22:11:08;;;;;;;84.00;40.80;;;;;;;3.60;100.00;99157.36;273231;1265;22183;-89
2024/03/05 22:17:11;;;;;;;89.70;40.60;;;;;;;3.68;100.00;99156.73;273468;1265;23367;-89
2024/03/05 22:23:18;;;;;;;87.30;39.60;;;;;;;3.77;100.00;99153.84;273422;1266;22492;-89
2024/03/05 22:29:19;;;;;;;79.40;37.70;;;;;;;3.85;100.00;99157.17;271346;1265;22608;-88
2024/03/05 22:35:21;;;;;;;88.40;38.00;;;;;;;3.92;100.00;99153.73;271622;1265;23846;-88
2024/03/05 22:41:24;;;;;;;77.80;38.10;;;;;;;3.95;100.00;99161.41;271713;1265;23525;-88
2024/03/05 22:47:27;;;;;;;75.40;35.70;;;;;;;3.95;100.00;99166.14;271539;1265;22543;-88
2024/03/05 22:53:32;;;;;;;74.90;37.10;;;;;;;3.98;100.00;99172.36;273562;1264;23489;-87
2024/03/05 22:59:33;;;;;;;85.30;39.00;;;;;;;3.96;100.00;99172.86;273591;1265;22309;-88
2024/03/05 23:05:36;;;;;;;69.20;35.90;;;;;;;3.90;100.00;99174.94;273267;1256;23488;-87
2024/03/05 23:11:41;;;;;;;63.00;33.40;;;;;;;3.89;100.00;99185.23;273375;1265;22414;-89
2024/03/05 23:17:49;;;;;;;72.10;36.40;;;;;;;3.90;100.00;99188.16;271369;1265;22536;-88
2024/03/05 23:23:51;;;;;;;71.10;35.40;;;;;;;3.89;100.00;99188.90;272775;1263;23753;-88
2024/03/05 23:29:53;;;;;;;77.60;37.00;;;;;;;3.89;100.00;99187.56;273573;1265;23379;-89
2024/03/05 23:35:55;;;;;;;71.30;34.00;;;;;;;3.85;100.00;99188.41;273599;1265;22273;-89
2024/03/05 23:41:58;;;;;;;66.60;32.80;;;;;;;3.73;100.00;99193.42;273550;1265;22377;-89
2024/03/05 23:48:01;;;;;;;75.20;35.00;;;;;;;3.62;100.00;99193.44;272966;1265;22179;-89
2024/03/05 23:54:03;;;;;;;69.60;33.60;;;;;;;3.50;100.00;99199.71;273500;1265;22392;-88
